Portland, Tennessee
Current Conditions -  °F | °C
As of 12:53 AM on Friday 31 Oct 2014 (Local Time) from KBWG Reporting Station
Overcast Overcast  
Wind Chill: 48°   Ceiling: 7000
Heat Index: 48°   Visibility: 10mi
Dew Point: 43°   Wind: 0mph
Humidity: 83%   Direction: NA
Pressure: 30.03"   Gusts: NA
Location:  36.58°N, 86.51°W
Report Text: KBWG 310553Z AUTO 00000KT 10SM BKN070 OVC090 09/06 A3003 RMK AO2 SLP168 T00890061 10106 20078 401670022 58008
Loading
Personal Weather Stations






























Interactive Weather Map
Tropical Storm Tracking
New forecast layout! Learn more

10-Day Weather Forecast

Advertisements
Track Severe Weather on mobile